sensor_id;sensor_type;location;lat;lon;timestamp;pressure;altitude;pressure_sealevel;temperature;humidity
43711;BME280;29309;42.682;23.372;2023-02-20T00:00:00;95494.81;;;10.94;52.92
43711;BME280;29309;42.682;23.372;2023-02-20T00:02:25;95500.06;;;10.88;54.54
43711;BME280;29309;42.682;23.372;2023-02-20T00:04:51;95501.88;;;10.83;53.88
43711;BME280;29309;42.682;23.372;2023-02-20T00:07:16;95505.25;;;10.82;54.15
43711;BME280;29309;42.682;23.372;2023-02-20T00:09:41;95505.25;;;10.82;54.59
43711;BME280;29309;42.682;23.372;2023-02-20T00:12:07;95508.66;;;10.80;54.94
43711;BME280;29309;42.682;23.372;2023-02-20T00:14:32;95503.41;;;10.73;54.74
43711;BME280;29309;42.682;23.372;2023-02-20T00:16:58;95503.28;;;10.71;55.46
43711;BME280;29309;42.682;23.372;2023-02-20T00:19:23;95509.97;;;10.66;55.45
43711;BME280;29309;42.682;23.372;2023-02-20T00:21:49;95513.34;;;10.64;55.83
43711;BME280;29309;42.682;23.372;2023-02-20T00:24:16;95505.75;;;10.65;55.68
43711;BME280;29309;42.682;23.372;2023-02-20T00:26:52;95504.41;;;10.66;55.87
43711;BME280;29309;42.682;23.372;2023-02-20T00:29:21;95511.28;;;10.65;55.90
43711;BME280;29309;42.682;23.372;2023-02-20T00:31:51;95519.03;;;10.66;55.60
43711;BME280;29309;42.682;23.372;2023-02-20T00:34:18;95511.19;;;10.63;56.02
43711;BME280;29309;42.682;23.372;2023-02-20T00:36:44;95510.47;;;10.62;56.63
43711;BME280;29309;42.682;23.372;2023-02-20T00:39:09;95506.88;;;10.60;56.52
43711;BME280;29309;42.682;23.372;2023-02-20T00:41:34;95502.50;;;10.57;56.43
43711;BME280;29309;42.682;23.372;2023-02-20T00:44:00;95491.19;;;10.53;56.99
43711;BME280;29309;42.682;23.372;2023-02-20T00:46:25;95491.69;;;10.49;57.55
43711;BME280;29309;42.682;23.372;2023-02-20T00:48:51;95495.69;;;10.46;58.58
43711;BME280;29309;42.682;23.372;2023-02-20T00:51:16;95509.56;;;10.46;57.68
43711;BME280;29309;42.682;23.372;2023-02-20T00:53:41;95514.41;;;10.46;57.73
43711;BME280;29309;42.682;23.372;2023-02-20T00:56:07;95508.03;;;10.43;57.73
43711;BME280;29309;42.682;23.372;2023-02-20T00:58:32;95511.19;;;10.38;58.03
43711;BME280;29309;42.682;23.372;2023-02-20T01:00:58;95519.28;;;10.33;58.09
43711;BME280;29309;42.682;23.372;2023-02-20T01:03:23;95524.97;;;10.24;58.34
43711;BME280;29309;42.682;23.372;2023-02-20T01:05:49;95525.59;;;10.22;58.60
43711;BME280;29309;42.682;23.372;2023-02-20T01:08:14;95534.53;;;10.21;59.10
43711;BME280;29309;42.682;23.372;2023-02-20T01:10:40;95545.41;;;10.17;59.29
43711;BME280;29309;42.682;23.372;2023-02-20T01:13:05;95547.22;;;10.12;59.07
43711;BME280;29309;42.682;23.372;2023-02-20T01:15:30;95549.13;;;10.10;59.58
43711;BME280;29309;42.682;23.372;2023-02-20T01:17:56;95552.75;;;10.12;59.31
43711;BME280;29309;42.682;23.372;2023-02-20T01:20:21;95560.84;;;10.08;59.55
43711;BME280;29309;42.682;23.372;2023-02-20T01:22:47;95560.72;;;10.06;59.67
43711;BME280;29309;42.682;23.372;2023-02-20T01:25:12;95571.81;;;10.06;59.98
43711;BME280;29309;42.682;23.372;2023-02-20T01:27:38;95568.31;;;10.06;60.02
43711;BME280;29309;42.682;23.372;2023-02-20T01:30:04;95577.03;;;10.00;60.48
43711;BME280;29309;42.682;23.372;2023-02-20T01:32:29;95576.44;;;10.02;60.39
43711;BME280;29309;42.682;23.372;2023-02-20T01:34:55;95574.34;;;10.02;60.38
43711;BME280;29309;42.682;23.372;2023-02-20T01:37:20;95574.00;;;10.08;60.63
43711;BME280;29309;42.682;23.372;2023-02-20T01:39:46;95576.03;;;10.07;60.52
43711;BME280;29309;42.682;23.372;2023-02-20T01:42:17;95562.75;;;10.06;60.67
43711;BME280;29309;42.682;23.372;2023-02-20T01:44:44;95571.72;;;10.04;60.71
43711;BME280;29309;42.682;23.372;2023-02-20T01:47:15;95567.13;;;10.09;60.91
43711;BME280;29309;42.682;23.372;2023-02-20T01:49:48;95571.81;;;10.06;60.90
43711;BME280;29309;42.682;23.372;2023-02-20T01:52:27;95577.50;;;10.08;61.21
43711;BME280;29309;42.682;23.372;2023-02-20T01:57:35;95564.94;;;10.07;61.73
43711;BME280;29309;42.682;23.372;2023-02-20T02:00:08;95569.75;;;10.07;61.83
43711;BME280;29309;42.682;23.372;2023-02-20T02:02:36;95571.72;;;10.04;61.83
43711;BME280;29309;42.682;23.372;2023-02-20T02:05:04;95574.34;;;10.02;61.69
43711;BME280;29309;42.682;23.372;2023-02-20T02:07:31;95575.56;;;9.99;62.59
43711;BME280;29309;42.682;23.372;2023-02-20T02:10:07;95577.63;;;9.99;62.63
43711;BME280;29309;42.682;23.372;2023-02-20T02:12:34;95566.66;;;10.01;67.13
43711;BME280;29309;42.682;23.372;2023-02-20T02:15:00;95576.91;;;9.98;62.74
43711;BME280;29309;42.682;23.372;2023-02-20T02:37:45;95606.34;;;9.45;62.19
43711;BME280;29309;42.682;23.372;2023-02-20T02:42:48;95588.84;;;9.31;62.62
43711;BME280;29309;42.682;23.372;2023-02-20T02:50:55;95604.50;;;9.15;62.83
43711;BME280;29309;42.682;23.372;2023-02-20T02:53:21;95606.06;;;9.18;62.82
43711;BME280;29309;42.682;23.372;2023-02-20T02:55:46;95617.88;;;9.18;63.32
43711;BME280;29309;42.682;23.372;2023-02-20T02:58:13;95621.34;;;9.19;62.76
43711;BME280;29309;42.682;23.372;2023-02-20T03:03:34;95633.84;;;9.08;63.25
43711;BME280;29309;42.682;23.372;2023-02-20T03:06:08;95644.22;;;9.08;63.92
43711;BME280;29309;42.682;23.372;2023-02-20T03:08:45;95639.28;;;9.06;63.89
43711;BME280;29309;42.682;23.372;2023-02-20T03:11:15;95637.97;;;9.07;63.75
43711;BME280;29309;42.682;23.372;2023-02-20T03:22:18;95626.81;;;8.84;65.01
43711;BME280;29309;42.682;23.372;2023-02-20T03:24:45;95642.44;;;8.79;64.72
43711;BME280;29309;42.682;23.372;2023-02-20T03:29:56;95644.09;;;8.73;65.39
43711;BME280;29309;42.682;23.372;2023-02-20T03:32:25;95666.97;;;8.73;65.29
43711;BME280;29309;42.682;23.372;2023-02-20T03:35:11;95666.97;;;8.73;64.42
43711;BME280;29309;42.682;23.372;2023-02-20T03:37:57;95665.13;;;8.66;64.82
43711;BME280;29309;42.682;23.372;2023-02-20T03:40:43;95665.88;;;8.67;64.81
43711;BME280;29309;42.682;23.372;2023-02-20T03:43:28;95671.97;;;8.65;64.45
43711;BME280;29309;42.682;23.372;2023-02-20T03:46:12;95661.53;;;8.64;64.42
43711;BME280;29309;42.682;23.372;2023-02-20T03:48:55;95678.13;;;8.64;64.38
43711;BME280;29309;42.682;23.372;2023-02-20T03:51:23;95664.88;;;8.62;64.29
43711;BME280;29309;42.682;23.372;2023-02-20T03:53:49;95657.50;;;8.55;64.20
43711;BME280;29309;42.682;23.372;2023-02-20T03:56:32;95653.41;;;8.56;64.45
43711;BME280;29309;42.682;23.372;2023-02-20T03:59:15;95665.81;;;8.55;64.33
43711;BME280;29309;42.682;23.372;2023-02-20T04:01:43;95658.81;;;8.54;64.37
43711;BME280;29309;42.682;23.372;2023-02-20T04:04:17;95661.56;;;8.54;63.99
43711;BME280;29309;42.682;23.372;2023-02-20T04:06:46;95660.84;;;8.54;64.22
43711;BME280;29309;42.682;23.372;2023-02-20T04:09:22;95660.16;;;8.53;63.77
43711;BME280;29309;42.682;23.372;2023-02-20T04:11:54;95663.50;;;8.52;63.54
43711;BME280;29309;42.682;23.372;2023-02-20T04:14:24;95677.22;;;8.50;63.96
43711;BME280;29309;42.682;23.372;2023-02-20T04:16:57;95663.50;;;8.52;63.58
43711;BME280;29309;42.682;23.372;2023-02-20T04:19:24;95670.94;;;8.49;63.61
43711;BME280;29309;42.682;23.372;2023-02-20T04:21:55;95679.72;;;8.46;64.27
43711;BME280;29309;42.682;23.372;2023-02-20T04:24:29;95683.31;;;8.48;63.83
43711;BME280;29309;42.682;23.372;2023-02-20T04:26:56;95681.59;;;8.43;64.48
43711;BME280;29309;42.682;23.372;2023-02-20T04:29:22;95679.09;;;8.47;64.14
43711;BME280;29309;42.682;23.372;2023-02-20T04:31:48;95684.53;;;8.45;64.44
43711;BME280;29309;42.682;23.372;2023-02-20T04:34:13;95683.53;;;8.40;64.77
43711;BME280;29309;42.682;23.372;2023-02-20T04:36:39;95690.97;;;8.38;64.67
43711;BME280;29309;42.682;23.372;2023-02-20T04:39:04;95687.47;;;8.37;64.69
43711;BME280;29309;42.682;23.372;2023-02-20T04:41:29;95674.84;;;8.34;64.81
43711;BME280;29309;42.682;23.372;2023-02-20T04:43:55;95678.78;;;8.31;64.76
43711;BME280;29309;42.682;23.372;2023-02-20T04:46:41;95678.06;;;8.31;64.62
43711;BME280;29309;42.682;23.372;2023-02-20T04:49:06;95688.81;;;8.27;65.05
43711;BME280;29309;42.682;23.372;2023-02-20T04:51:31;95688.25;;;8.28;65.23
43711;BME280;29309;42.682;23.372;2023-02-20T04:53:57;95692.31;;;8.27;65.02
43711;BME280;29309;42.682;23.372;2023-02-20T04:56:22;95705.28;;;8.25;64.32
43711;BME280;29309;42.682;23.372;2023-02-20T04:58:48;95706.63;;;8.24;64.42
43711;BME280;29309;42.682;23.372;2023-02-20T05:01:14;95710.69;;;8.23;63.51
43711;BME280;29309;42.682;23.372;2023-02-20T05:03:40;95715.50;;;8.22;63.62
43711;BME280;29309;42.682;23.372;2023-02-20T05:06:06;95723.06;;;8.22;63.05
43711;BME280;29309;42.682;23.372;2023-02-20T05:08:31;95717.41;;;8.20;63.20
43711;BME280;29309;42.682;23.372;2023-02-20T05:10:57;95720.91;;;8.20;62.00
43711;BME280;29309;42.682;23.372;2023-02-20T05:13:22;95724.84;;;8.17;61.97
43711;BME280;29309;42.682;23.372;2023-02-20T05:15:48;95722.66;;;8.16;61.04
43711;BME280;29309;42.682;23.372;2023-02-20T05:18:13;95725.75;;;8.10;60.14
43711;BME280;29309;42.682;23.372;2023-02-20T05:20:47;95726.78;;;8.05;59.68
43711;BME280;29309;42.682;23.372;2023-02-20T05:23:31;95714.28;;;8.04;59.72
43711;BME280;29309;42.682;23.372;2023-02-20T05:25:56;95723.75;;;8.01;59.18
43711;BME280;29309;42.682;23.372;2023-02-20T05:28:22;95736.22;;;8.12;61.54
43711;BME280;29309;42.682;23.372;2023-02-20T05:30:47;95742.41;;;8.31;59.34
43711;BME280;29309;42.682;23.372;2023-02-20T05:33:13;95759.00;;;8.22;58.00
43711;BME280;29309;42.682;23.372;2023-02-20T05:35:38;95754.66;;;8.19;59.12
43711;BME280;29309;42.682;23.372;2023-02-20T05:38:04;95761.09;;;8.12;59.07
43711;BME280;29309;42.682;23.372;2023-02-20T05:40:30;95764.59;;;8.12;59.54
43711;BME280;29309;42.682;23.372;2023-02-20T05:42:56;95768.63;;;8.21;59.65
43711;BME280;29309;42.682;23.372;2023-02-20T05:45:21;95766.25;;;8.36;59.08
43711;BME280;29309;42.682;23.372;2023-02-20T05:47:47;95762.38;;;8.51;58.57
43711;BME280;29309;42.682;23.372;2023-02-20T05:50:12;95769.00;;;8.67;58.19
43711;BME280;29309;42.682;23.372;2023-02-20T05:52:38;95773.69;;;8.86;58.35
43711;BME280;29309;42.682;23.372;2023-02-20T05:55:03;95763.91;;;9.06;57.46
43711;BME280;29309;42.682;23.372;2023-02-20T05:57:29;95764.81;;;9.20;57.29
43711;BME280;29309;42.682;23.372;2023-02-20T05:59:55;95771.72;;;9.31;57.88
43711;BME280;29309;42.682;23.372;2023-02-20T06:02:20;95773.84;;;9.54;56.75
43711;BME280;29309;42.682;23.372;2023-02-20T06:04:45;95775.19;;;9.64;55.97
43711;BME280;29309;42.682;23.372;2023-02-20T06:07:11;95770.50;;;9.67;56.03
43711;BME280;29309;42.682;23.372;2023-02-20T06:09:36;95775.34;;;9.78;58.25
43711;BME280;29309;42.682;23.372;2023-02-20T06:12:05;95787.31;;;9.92;57.22
43711;BME280;29309;42.682;23.372;2023-02-20T06:14:31;95784.44;;;10.13;54.02
43711;BME280;29309;42.682;23.372;2023-02-20T06:16:56;95784.94;;;9.98;52.86
43711;BME280;29309;42.682;23.372;2023-02-20T06:19:23;95785.75;;;10.01;53.10
43711;BME280;29309;42.682;23.372;2023-02-20T06:21:53;95793.91;;;10.20;51.89
43711;BME280;29309;42.682;23.372;2023-02-20T06:24:19;95789.56;;;10.28;50.24
43711;BME280;29309;42.682;23.372;2023-02-20T06:26:45;95794.16;;;10.47;49.37
43711;BME280;29309;42.682;23.372;2023-02-20T06:29:12;95808.38;;;10.65;48.88
43711;BME280;29309;42.682;23.372;2023-02-20T06:31:37;95803.38;;;10.98;48.53
43711;BME280;29309;42.682;23.372;2023-02-20T06:34:03;95802.25;;;11.15;47.64
43711;BME280;29309;42.682;23.372;2023-02-20T06:36:31;95809.59;;;11.22;47.51
43711;BME280;29309;42.682;23.372;2023-02-20T06:38:57;95803.41;;;11.35;46.84
43711;BME280;29309;42.682;23.372;2023-02-20T06:41:22;95799.25;;;11.48;46.00
43711;BME280;29309;42.682;23.372;2023-02-20T06:43:48;95798.25;;;11.55;46.46
43711;BME280;29309;42.682;23.372;2023-02-20T06:46:14;95781.19;;;11.60;45.61
43711;BME280;29309;42.682;23.372;2023-02-20T06:48:47;95808.44;;;11.50;45.48
43711;BME280;29309;42.682;23.372;2023-02-20T06:51:18;95809.59;;;11.59;45.47
43711;BME280;29309;42.682;23.372;2023-02-20T06:53:44;95809.00;;;11.60;44.65
43711;BME280;29309;42.682;23.372;2023-02-20T06:56:13;95817.16;;;11.45;45.06
43711;BME280;29309;42.682;23.372;2023-02-20T06:58:39;95811.69;;;11.10;45.74
43711;BME280;29309;42.682;23.372;2023-02-20T07:01:05;95817.03;;;10.94;46.26
43711;BME280;29309;42.682;23.372;2023-02-20T07:03:30;95828.38;;;10.98;46.58
43711;BME280;29309;42.682;23.372;2023-02-20T07:05:56;95812.56;;;10.89;46.06
43711;BME280;29309;42.682;23.372;2023-02-20T07:08:21;95819.47;;;10.88;46.31
43711;BME280;29309;42.682;23.372;2023-02-20T07:10:47;95813.63;;;11.07;45.83
43711;BME280;29309;42.682;23.372;2023-02-20T07:13:12;95818.88;;;11.38;46.11
43711;BME280;29309;42.682;23.372;2023-02-20T07:15:37;95823.50;;;11.59;44.87
43711;BME280;29309;42.682;23.372;2023-02-20T07:18:03;95818.88;;;11.63;44.02
43711;BME280;29309;42.682;23.372;2023-02-20T07:20:28;95825.03;;;11.62;44.06
43711;BME280;29309;42.682;23.372;2023-02-20T07:22:54;95828.59;;;11.88;43.61
43711;BME280;29309;42.682;23.372;2023-02-20T07:25:19;95837.56;;;12.11;43.81
43711;BME280;29309;42.682;23.372;2023-02-20T07:27:45;95819.06;;;12.43;41.81
43711;BME280;29309;42.682;23.372;2023-02-20T07:30:11;95831.50;;;12.28;39.93
43711;BME280;29309;42.682;23.372;2023-02-20T07:32:36;95827.13;;;12.12;40.94
43711;BME280;29309;42.682;23.372;2023-02-20T07:35:02;95824.47;;;12.27;40.98
43711;BME280;29309;42.682;23.372;2023-02-20T07:37:28;95828.44;;;11.97;41.23
43711;BME280;29309;42.682;23.372;2023-02-20T07:39:53;95830.41;;;12.08;40.48
43711;BME280;29309;42.682;23.372;2023-02-20T07:42:19;95844.38;;;12.22;40.75
43711;BME280;29309;42.682;23.372;2023-02-20T07:44:44;95846.03;;;12.27;40.16
43711;BME280;29309;42.682;23.372;2023-02-20T07:47:14;95850.13;;;11.87;40.00
43711;BME280;29309;42.682;23.372;2023-02-20T07:49:39;95846.84;;;11.91;40.34
43711;BME280;29309;42.682;23.372;2023-02-20T07:52:04;95853.47;;;11.97;40.03
43711;BME280;29309;42.682;23.372;2023-02-20T07:54:30;95856.59;;;12.03;39.49
43711;BME280;29309;42.682;23.372;2023-02-20T07:56:55;95861.59;;;12.18;39.65
43711;BME280;29309;42.682;23.372;2023-02-20T07:59:22;95857.25;;;12.15;39.45
43711;BME280;29309;42.682;23.372;2023-02-20T08:01:47;95855.63;;;12.24;39.32
43711;BME280;29309;42.682;23.372;2023-02-20T08:04:13;95871.09;;;12.02;39.21
43711;BME280;29309;42.682;23.372;2023-02-20T08:06:38;95865.69;;;12.17;39.50
43711;BME280;29309;42.682;23.372;2023-02-20T08:09:04;95864.13;;;12.40;39.03
43711;BME280;29309;42.682;23.372;2023-02-20T08:11:33;95873.75;;;12.77;38.19
43711;BME280;29309;42.682;23.372;2023-02-20T08:13:58;95870.66;;;12.85;37.26
43711;BME280;29309;42.682;23.372;2023-02-20T08:16:24;95849.53;;;13.07;37.21
43711;BME280;29309;42.682;23.372;2023-02-20T08:18:51;95855.84;;;13.21;36.30
43711;BME280;29309;42.682;23.372;2023-02-20T08:21:17;95857.78;;;13.32;36.55
43711;BME280;29309;42.682;23.372;2023-02-20T08:23:42;95860.84;;;13.52;35.90
43711;BME280;29309;42.682;23.372;2023-02-20T08:26:08;95855.13;;;13.77;34.98
43711;BME280;29309;42.682;23.372;2023-02-20T08:28:33;95860.06;;;13.79;34.99
43711;BME280;29309;42.682;23.372;2023-02-20T08:30:59;95861.06;;;13.86;35.31
43711;BME280;29309;42.682;23.372;2023-02-20T08:33:24;95858.59;;;14.07;34.66
43711;BME280;29309;42.682;23.372;2023-02-20T08:35:50;95864.91;;;13.78;34.33
43711;BME280;29309;42.682;23.372;2023-02-20T08:38:29;95853.25;;;13.68;34.45
43711;BME280;29309;42.682;23.372;2023-02-20T08:40:55;95856.44;;;14.06;34.26
43711;BME280;29309;42.682;23.372;2023-02-20T08:43:21;95860.56;;;14.34;35.29
43711;BME280;29309;42.682;23.372;2023-02-20T08:45:47;95865.09;;;14.72;33.76
43711;BME280;29309;42.682;23.372;2023-02-20T08:48:13;95858.00;;;14.54;32.71
43711;BME280;29309;42.682;23.372;2023-02-20T08:50:39;95867.28;;;14.29;34.03
43711;BME280;29309;42.682;23.372;2023-02-20T08:53:05;95859.19;;;14.19;34.10
43711;BME280;29309;42.682;23.372;2023-02-20T08:55:30;95852.66;;;14.15;33.94
43711;BME280;29309;42.682;23.372;2023-02-20T08:57:55;95863.66;;;14.11;34.82
43711;BME280;29309;42.682;23.372;2023-02-20T09:00:21;95853.31;;;14.13;35.70
43711;BME280;29309;42.682;23.372;2023-02-20T09:02:47;95851.50;;;14.65;34.01
43711;BME280;29309;42.682;23.372;2023-02-20T09:05:14;95857.53;;;14.91;32.37
43711;BME280;29309;42.682;23.372;2023-02-20T09:07:39;95844.19;;;14.73;32.71
43711;BME280;29309;42.682;23.372;2023-02-20T09:10:05;95842.47;;;14.51;32.23
43711;BME280;29309;42.682;23.372;2023-02-20T09:12:31;95837.06;;;14.39;32.76
43711;BME280;29309;42.682;23.372;2023-02-20T09:14:57;95856.75;;;14.27;32.95
43711;BME280;29309;42.682;23.372;2023-02-20T09:17:27;95843.06;;;14.34;32.74
43711;BME280;29309;42.682;23.372;2023-02-20T09:19:52;95843.63;;;13.85;33.23
43711;BME280;29309;42.682;23.372;2023-02-20T09:22:25;95841.75;;;14.05;33.53
43711;BME280;29309;42.682;23.372;2023-02-20T09:24:52;95844.25;;;14.28;33.76
43711;BME280;29309;42.682;23.372;2023-02-20T09:27:19;95843.34;;;14.24;33.21
43711;BME280;29309;42.682;23.372;2023-02-20T09:29:45;95840.22;;;14.02;33.54
43711;BME280;29309;42.682;23.372;2023-02-20T09:32:12;95867.34;;;14.15;33.54
43711;BME280;29309;42.682;23.372;2023-02-20T09:34:37;95849.84;;;14.28;33.09
43711;BME280;29309;42.682;23.372;2023-02-20T09:37:03;95858.78;;;13.96;34.50
43711;BME280;29309;42.682;23.372;2023-02-20T09:39:29;95846.97;;;13.68;34.32
43711;BME280;29309;42.682;23.372;2023-02-20T09:42:27;95846.75;;;13.93;33.93
43711;BME280;29309;42.682;23.372;2023-02-20T09:44:59;95844.50;;;13.90;34.23
43711;BME280;29309;42.682;23.372;2023-02-20T09:47:48;95837.66;;;13.93;34.79
43711;BME280;29309;42.682;23.372;2023-02-20T09:50:36;95841.69;;;13.74;34.43
43711;BME280;29309;42.682;23.372;2023-02-20T09:55:46;95843.22;;;13.77;34.81
43711;BME280;29309;42.682;23.372;2023-02-20T09:58:25;95861.84;;;14.02;34.84
43711;BME280;29309;42.682;23.372;2023-02-20T10:00:55;95848.47;;;13.85;34.60
43711;BME280;29309;42.682;23.372;2023-02-20T10:03:41;95860.44;;;13.87;34.84
43711;BME280;29309;42.682;23.372;2023-02-20T10:06:18;95844.16;;;13.97;33.85
43711;BME280;29309;42.682;23.372;2023-02-20T10:08:47;95826.53;;;14.08;34.03
43711;BME280;29309;42.682;23.372;2023-02-20T10:22:04;95832.59;;;14.18;33.31
43711;BME280;29309;42.682;23.372;2023-02-20T10:30:28;95811.81;;;14.21;32.95
43711;BME280;29309;42.682;23.372;2023-02-20T10:38:17;95808.25;;;14.05;32.46
43711;BME280;29309;42.682;23.372;2023-02-20T10:40:59;95812.59;;;14.08;32.30
43711;BME280;29309;42.682;23.372;2023-02-20T10:46:07;95808.22;;;14.35;33.59
43711;BME280;29309;42.682;23.372;2023-02-20T10:48:37;95816.47;;;14.32;31.76
43711;BME280;29309;42.682;23.372;2023-02-20T10:56:25;95810.28;;;14.65;31.66
43711;BME280;29309;42.682;23.372;2023-02-20T11:01:29;95802.75;;;14.68;31.82
43711;BME280;29309;42.682;23.372;2023-02-20T11:04:05;95791.91;;;14.60;34.02
43711;BME280;29309;42.682;23.372;2023-02-20T11:07:02;95794.00;;;14.60;31.04
43711;BME280;29309;42.682;23.372;2023-02-20T11:09:29;95766.25;;;14.48;31.10
43711;BME280;29309;42.682;23.372;2023-02-20T11:11:55;95779.03;;;14.38;31.75
43711;BME280;29309;42.682;23.372;2023-02-20T11:14:43;95777.94;;;14.45;31.80
43711;BME280;29309;42.682;23.372;2023-02-20T11:17:16;95767.31;;;14.41;32.47
43711;BME280;29309;42.682;23.372;2023-02-20T11:19:48;95765.69;;;14.20;32.99
43711;BME280;29309;42.682;23.372;2023-02-20T11:22:16;95768.81;;;14.13;33.49
43711;BME280;29309;42.682;23.372;2023-02-20T11:24:43;95773.88;;;14.16;33.86
43711;BME280;29309;42.682;23.372;2023-02-20T11:27:22;95756.19;;;13.80;33.82
43711;BME280;29309;42.682;23.372;2023-02-20T11:30:17;95767.28;;;13.94;34.08
43711;BME280;29309;42.682;23.372;2023-02-20T11:32:41;95750.59;;;13.80;33.52
43711;BME280;29309;42.682;23.372;2023-02-20T11:37:36;95756.41;;;13.71;33.80
43711;BME280;29309;42.682;23.372;2023-02-20T11:40:02;95764.56;;;13.80;33.56
43711;BME280;29309;42.682;23.372;2023-02-20T11:42:32;95778.25;;;13.90;34.36
43711;BME280;29309;42.682;23.372;2023-02-20T11:45:15;95756.28;;;13.98;34.30
43711;BME280;29309;42.682;23.372;2023-02-20T11:47:41;95757.94;;;14.03;33.16
43711;BME280;29309;42.682;23.372;2023-02-20T11:50:18;95761.53;;;14.21;32.90
43711;BME280;29309;42.682;23.372;2023-02-20T11:52:57;95749.56;;;14.35;32.76
43711;BME280;29309;42.682;23.372;2023-02-20T11:55:24;95756.47;;;14.34;33.48
43711;BME280;29309;42.682;23.372;2023-02-20T11:57:51;95761.00;;;14.41;32.30
43711;BME280;29309;42.682;23.372;2023-02-20T12:00:46;95755.72;;;14.47;33.07
43711;BME280;29309;42.682;23.372;2023-02-20T12:03:13;95755.72;;;14.80;31.95
43711;BME280;29309;42.682;23.372;2023-02-20T12:05:45;95752.97;;;14.98;31.48
43711;BME280;29309;42.682;23.372;2023-02-20T12:10:52;95754.22;;;15.10;31.35
43711;BME280;29309;42.682;23.372;2023-02-20T12:13:19;95738.31;;;15.15;30.98
43711;BME280;29309;42.682;23.372;2023-02-20T12:18:48;95754.34;;;15.48;30.38
43711;BME280;29309;42.682;23.372;2023-02-20T12:21:39;95742.41;;;16.00;29.88
43711;BME280;29309;42.682;23.372;2023-02-20T12:26:54;95755.09;;;15.66;29.91
43711;BME280;29309;42.682;23.372;2023-02-20T12:34:57;95761.81;;;15.59;29.79
43711;BME280;29309;42.682;23.372;2023-02-20T12:47:48;95747.56;;;15.53;29.94
43711;BME280;29309;42.682;23.372;2023-02-20T12:50:54;95733.44;;;14.49;31.28
43711;BME280;29309;42.682;23.372;2023-02-20T12:53:31;95726.31;;;14.14;32.01
43711;BME280;29309;42.682;23.372;2023-02-20T12:58:46;95744.91;;;13.63;33.20
43711;BME280;29309;42.682;23.372;2023-02-20T13:01:13;95737.09;;;13.46;33.84
43711;BME280;29309;42.682;23.372;2023-02-20T13:06:09;95763.50;;;13.29;33.66
43711;BME280;29309;42.682;23.372;2023-02-20T13:08:51;95759.56;;;13.34;34.02
43711;BME280;29309;42.682;23.372;2023-02-20T13:11:21;95759.03;;;13.38;33.63
43711;BME280;29309;42.682;23.372;2023-02-20T13:16:50;95750.00;;;13.23;33.81
43711;BME280;29309;42.682;23.372;2023-02-20T13:19:36;95756.50;;;13.14;34.52
43711;BME280;29309;42.682;23.372;2023-02-20T13:22:03;95756.44;;;13.12;35.42
43711;BME280;29309;42.682;23.372;2023-02-20T13:24:38;95767.03;;;13.02;34.39
43711;BME280;29309;42.682;23.372;2023-02-20T13:27:06;95754.53;;;13.03;34.38
43711;BME280;29309;42.682;23.372;2023-02-20T13:29:36;95771.28;;;13.03;36.17
43711;BME280;29309;42.682;23.372;2023-02-20T13:34:43;95773.44;;;13.05;35.00
43711;BME280;29309;42.682;23.372;2023-02-20T13:45:41;95779.00;;;13.18;35.01
43711;BME280;29309;42.682;23.372;2023-02-20T13:53:51;95773.75;;;13.11;35.66
43711;BME280;29309;42.682;23.372;2023-02-20T13:59:09;95762.94;;;12.90;36.05
43711;BME280;29309;42.682;23.372;2023-02-20T14:02:17;95746.81;;;12.88;35.68
43711;BME280;29309;42.682;23.372;2023-02-20T14:05:02;95760.47;;;12.82;36.55
43711;BME280;29309;42.682;23.372;2023-02-20T14:07:31;95761.38;;;12.87;35.94
43711;BME280;29309;42.682;23.372;2023-02-20T14:10:06;95782.53;;;12.92;36.27
43711;BME280;29309;42.682;23.372;2023-02-20T14:12:36;95774.06;;;12.90;36.47
43711;BME280;29309;42.682;23.372;2023-02-20T14:15:03;95770.38;;;12.85;36.57
43711;BME280;29309;42.682;23.372;2023-02-20T14:17:28;95788.22;;;12.80;36.89
43711;BME280;29309;42.682;23.372;2023-02-20T14:19:58;95787.41;;;12.64;36.40
43711;BME280;29309;42.682;23.372;2023-02-20T14:22:29;95787.19;;;12.60;38.11
43711;BME280;29309;42.682;23.372;2023-02-20T14:25:19;95791.50;;;12.63;37.55
43711;BME280;29309;42.682;23.372;2023-02-20T14:27:46;95789.16;;;12.57;37.85
43711;BME280;29309;42.682;23.372;2023-02-20T14:30:19;95785.34;;;12.51;37.98
43711;BME280;29309;42.682;23.372;2023-02-20T14:32:48;95793.56;;;12.49;37.45
43711;BME280;29309;42.682;23.372;2023-02-20T14:38:10;95809.75;;;12.39;38.53
43711;BME280;29309;42.682;23.372;2023-02-20T14:40:40;95797.69;;;12.34;38.62
43711;BME280;29309;42.682;23.372;2023-02-20T14:45:41;95810.47;;;12.25;39.09
43711;BME280;29309;42.682;23.372;2023-02-20T14:48:21;95809.00;;;12.24;39.17
43711;BME280;29309;42.682;23.372;2023-02-20T14:50:47;95809.53;;;12.21;39.36
43711;BME280;29309;42.682;23.372;2023-02-20T14:53:17;95810.03;;;12.17;39.07
43711;BME280;29309;42.682;23.372;2023-02-20T14:55:45;95813.19;;;12.12;39.50
43711;BME280;29309;42.682;23.372;2023-02-20T14:58:15;95822.56;;;12.05;39.34
43711;BME280;29309;42.682;23.372;2023-02-20T15:00:43;95819.47;;;11.99;39.84
43711;BME280;29309;42.682;23.372;2023-02-20T15:03:26;95826.84;;;11.94;39.38
43711;BME280;29309;42.682;23.372;2023-02-20T15:05:53;95833.88;;;11.95;40.08
43711;BME280;29309;42.682;23.372;2023-02-20T15:10:52;95818.41;;;11.92;40.53
43711;BME280;29309;42.682;23.372;2023-02-20T15:13:22;95823.44;;;11.82;40.76
43711;BME280;29309;42.682;23.372;2023-02-20T15:16:02;95821.53;;;11.73;40.58
43711;BME280;29309;42.682;23.372;2023-02-20T15:18:36;95808.00;;;11.67;40.84
43711;BME280;29309;42.682;23.372;2023-02-20T15:21:03;95808.38;;;11.62;40.96
43711;BME280;29309;42.682;23.372;2023-02-20T15:23:35;95805.34;;;11.58;41.55
43711;BME280;29309;42.682;23.372;2023-02-20T15:26:27;95808.53;;;11.52;41.60